Hallock, Minnesota
Current Conditions -  °F | °C
As of 9:15 PM on Monday 26 Jan 2015 (Local Time) from KHCO Reporting Station
Overcast Overcast  
Wind Chill: 21°   Ceiling: 600
Heat Index: 27°   Visibility: 10mi
Dew Point: 23°   Wind: 5mph
Humidity: 86%   Direction: 350°N
Pressure: 30"   Gusts: NA
Location:  48.77°N, 96.95°W
Report Text: KHCO 270315Z AUTO 35004KT 10SM OVC006 M03/M05 A3000 RMK AO2
Loading
Personal Weather Stations






























Interactive Weather Map New forecast layout! Learn more

10-Day Weather Forecast

Advertisements
Track Severe Weather on mobile